Time;durP1;ratioP1;P1;durP2;ratioP2;P2;SDS_P1;SDS_P2;PMS_P1;PMS_P2;Temp;Humidity;BMP_temperature;BMP_pressure;BME280_temperature;BME280_humidity;BME280_pressure;Samples;Min_cycle;Max_cycle;Signal;HPM_P1;HPM_P2
2020/12/04 00:01:36;;;;;;;26.67;12.80;;;8.60;57.40;;;;;;4948647;28;20957;-65
2020/12/04 00:04:02;;;;;;;25.08;13.55;;;8.60;57.30;;;;;;4945283;28;20058;-65
2020/12/04 00:06:28;;;;;;;21.63;10.30;;;8.60;57.30;;;;;;4945793;28;20277;-65
2020/12/04 00:08:54;;;;;;;20.48;11.27;;;8.60;57.20;;;;;;4947699;28;20404;-64
2020/12/04 00:11:20;;;;;;;21.52;11.70;;;8.60;57.20;;;;;;4949957;28;20047;-65
2020/12/04 00:13:46;;;;;;;25.55;13.43;;;8.60;57.20;;;;;;4944310;28;20080;-65
2020/12/04 00:16:12;;;;;;;24.85;12.35;;;8.50;57.10;;;;;;4946327;28;20477;-65
2020/12/04 00:18:37;;;;;;;21.05;12.25;;;8.50;57.10;;;;;;4943823;28;20046;-65
2020/12/04 00:21:03;;;;;;;24.50;12.52;;;8.50;57.10;;;;;;4942536;28;24818;-65
2020/12/04 00:23:28;;;;;;;23.27;11.77;;;8.50;57.10;;;;;;4941088;28;20043;-64
2020/12/04 00:25:55;;;;;;;21.85;12.07;;;8.50;57.10;;;;;;4943732;28;20646;-64
2020/12/04 00:28:20;;;;;;;23.45;11.95;;;8.50;57.00;;;;;;4944403;28;20039;-64
2020/12/04 00:30:46;;;;;;;26.55;12.68;;;8.40;56.90;;;;;;4947798;28;20050;-64
2020/12/04 00:33:12;;;;;;;23.88;11.68;;;8.40;56.90;;;;;;4949186;28;20047;-65
2020/12/04 00:35:37;;;;;;;20.83;11.98;;;8.40;56.90;;;;;;4951246;28;20046;-64
2020/12/04 00:38:03;;;;;;;23.27;12.25;;;8.40;56.90;;;;;;4945890;28;20042;-65
2020/12/04 00:40:29;;;;;;;21.85;12.10;;;8.30;56.90;;;;;;4961343;28;20067;-64
2020/12/04 00:42:54;;;;;;;27.27;12.93;;;8.30;57.00;;;;;;4948573;28;20043;-64
2020/12/04 00:45:20;;;;;;;22.88;11.95;;;8.30;57.10;;;;;;4969293;28;20046;-64
2020/12/04 00:47:45;;;;;;;28.35;12.20;;;8.20;57.10;;;;;;4937007;28;20121;-64
2020/12/04 00:50:11;;;;;;;20.90;11.88;;;8.20;57.10;;;;;;4953898;28;20050;-64
2020/12/04 00:52:37;;;;;;;23.38;12.13;;;8.20;57.70;;;;;;4947632;28;20415;-65
2020/12/04 00:55:03;;;;;;;24.08;12.18;;;8.20;57.00;;;;;;4956088;28;20046;-65
2020/12/04 00:57:28;;;;;;;21.30;11.98;;;8.10;56.90;;;;;;4945257;28;20244;-65
2020/12/04 00:59:54;;;;;;;25.42;12.65;;;8.10;57.00;;;;;;4947353;28;20050;-65
2020/12/04 01:02:20;;;;;;;22.85;11.63;;;8.10;57.00;;;;;;4941722;28;20144;-64
2020/12/04 01:04:45;;;;;;;23.45;12.55;;;8.10;57.00;;;;;;4948371;28;20094;-64
2020/12/04 01:07:11;;;;;;;24.88;12.35;;;8.00;57.00;;;;;;4951437;28;21296;-65
2020/12/04 01:09:37;;;;;;;23.40;11.68;;;8.00;57.10;;;;;;4947323;28;20053;-65
2020/12/04 01:12:04;;;;;;;22.45;11.18;;;8.00;57.00;;;;;;4962728;23;20128;-63
2020/12/04 01:14:30;;;;;;;22.58;11.55;;;8.00;57.10;;;;;;4949711;28;20051;-63
2020/12/04 01:16:56;;;;;;;22.60;11.57;;;8.00;57.10;;;;;;4951943;28;20041;-63
2020/12/04 01:19:21;;;;;;;21.23;11.10;;;7.90;57.10;;;;;;4952613;28;20047;-63
2020/12/04 01:21:48;;;;;;;26.33;12.02;;;7.90;57.10;;;;;;4944184;28;20063;-63
2020/12/04 01:24:14;;;;;;;24.05;12.00;;;7.90;57.10;;;;;;4940022;28;20253;-63
2020/12/04 01:26:40;;;;;;;26.50;12.20;;;7.90;57.20;;;;;;4945413;28;20185;-63
2020/12/04 01:29:06;;;;;;;23.48;11.55;;;7.90;57.20;;;;;;4939786;28;20062;-63
2020/12/04 01:31:32;;;;;;;24.80;12.10;;;7.90;57.10;;;;;;4942975;28;20038;-63
2020/12/04 01:34:00;;;;;;;24.38;11.88;;;7.90;57.10;;;;;;4940398;28;20431;-63
2020/12/04 01:36:30;;;;;;;24.13;12.82;;;7.90;57.20;;;;;;4942278;28;20043;-63
2020/12/04 01:38:57;;;;;;;22.73;10.73;;;7.90;57.10;;;;;;4936720;28;20039;-63
2020/12/04 01:41:22;;;;;;;24.23;11.20;;;7.90;57.00;;;;;;4939932;28;20393;-63
2020/12/04 01:43:48;;;;;;;22.38;10.30;;;7.90;57.00;;;;;;4951539;28;20037;-63
2020/12/04 01:46:14;;;;;;;24.08;12.40;;;7.90;57.00;;;;;;4948404;28;20134;-63
2020/12/04 01:48:43;;;;;;;26.20;12.88;;;7.90;57.00;;;;;;4937090;28;20043;-63
2020/12/04 01:51:09;;;;;;;24.17;12.50;;;7.90;56.90;;;;;;4943289;28;20125;-63
2020/12/04 01:53:36;;;;;;;21.98;11.50;;;7.90;56.90;;;;;;4939805;28;20118;-63
2020/12/04 01:56:02;;;;;;;27.50;12.38;;;7.90;57.00;;;;;;4943772;28;20053;-63
2020/12/04 01:58:28;;;;;;;26.25;12.13;;;7.90;56.90;;;;;;4935444;28;20048;-63
2020/12/04 02:00:53;;;;;;;24.40;12.63;;;7.90;56.80;;;;;;4938069;28;20043;-63
2020/12/04 02:03:19;;;;;;;25.23;12.18;;;7.90;56.70;;;;;;4951309;28;20043;-63
2020/12/04 02:05:57;;;;;;;23.95;11.95;;;7.90;56.70;;;;;;4946755;28;20042;-63
2020/12/04 02:08:34;;;;;;;23.20;11.43;;;7.80;56.60;;;;;;4944074;28;20106;-63
2020/12/04 02:11:05;;;;;;;23.33;11.48;;;7.80;56.60;;;;;;4939307;28;20511;-63
2020/12/04 02:13:33;;;;;;;24.92;12.27;;;7.80;57.20;;;;;;4945251;28;20043;-63
2020/12/04 02:16:00;;;;;;;21.45;11.45;;;7.80;56.60;;;;;;4942167;28;20551;-63
2020/12/04 02:18:25;;;;;;;23.80;11.35;;;7.80;56.60;;;;;;4932648;28;20054;-63
2020/12/04 02:21:01;;;;;;;25.70;11.90;;;7.80;56.60;;;;;;4944147;28;20063;-63
2020/12/04 02:23:27;;;;;;;25.48;11.63;;;7.80;56.60;;;;;;4950089;28;20027;-63
2020/12/04 02:25:55;;;;;;;24.38;11.85;;;7.80;56.50;;;;;;4937911;28;20648;-63
2020/12/04 02:28:33;;;;;;;27.17;12.38;;;7.80;56.50;;;;;;4943570;28;20067;-63
2020/12/04 02:31:01;;;;;;;26.10;12.85;;;7.80;56.40;;;;;;4945093;28;20055;-63
2020/12/04 02:33:27;;;;;;;23.60;11.65;;;7.80;56.40;;;;;;4941826;28;20623;-63
2020/12/04 02:35:53;;;;;;;26.27;11.85;;;7.80;56.40;;;;;;4946563;28;20039;-63
2020/12/04 02:38:20;;;;;;;26.08;12.25;;;7.80;56.30;;;;;;4939677;28;20039;-63
2020/12/04 02:40:45;;;;;;;27.20;11.63;;;7.90;56.30;;;;;;4945696;28;20654;-63
2020/12/04 02:43:11;;;;;;;21.75;10.90;;;7.90;56.20;;;;;;4931587;28;20034;-63
2020/12/04 02:45:37;;;;;;;28.60;11.85;;;7.90;56.10;;;;;;4943059;28;20150;-63
2020/12/04 02:48:03;;;;;;;22.58;11.32;;;7.90;56.00;;;;;;4940127;28;20038;-63
2020/12/04 02:50:28;;;;;;;23.50;11.23;;;7.90;56.00;;;;;;4943986;28;20038;-63
2020/12/04 02:52:54;;;;;;;25.20;11.90;;;8.00;56.00;;;;;;4934121;28;20514;-63
2020/12/04 02:55:19;;;;;;;21.58;10.93;;;7.90;55.80;;;;;;4949960;28;20039;-63
2020/12/04 02:57:45;;;;;;;24.13;11.00;;;8.00;55.80;;;;;;4940284;28;20047;-63
2020/12/04 03:00:11;;;;;;;23.63;11.82;;;8.00;55.70;;;;;;4946944;28;20473;-63
2020/12/04 03:02:36;;;;;;;23.63;12.02;;;8.00;55.60;;;;;;4948029;28;20622;-63
2020/12/04 03:05:02;;;;;;;25.77;12.18;;;7.90;55.50;;;;;;4940670;28;20050;-63
2020/12/04 03:07:28;;;;;;;23.75;12.38;;;7.90;55.50;;;;;;4941241;28;20050;-63
2020/12/04 03:09:53;;;;;;;23.80;11.65;;;7.90;55.50;;;;;;4942795;28;20369;-63
2020/12/04 03:12:19;;;;;;;22.73;12.77;;;7.90;55.50;;;;;;4942180;28;20043;-63
2020/12/04 03:14:44;;;;;;;20.70;11.05;;;7.80;55.40;;;;;;4943948;28;20062;-63
2020/12/04 03:17:10;;;;;;;22.30;10.88;;;7.80;55.50;;;;;;4942680;28;20078;-63
2020/12/04 03:19:36;;;;;;;22.50;11.43;;;7.80;55.50;;;;;;4935359;28;20407;-63
2020/12/04 03:22:01;;;;;;;25.02;11.82;;;7.80;55.50;;;;;;4944189;28;20038;-63
2020/12/04 03:24:27;;;;;;;24.58;12.00;;;7.80;55.50;;;;;;4943898;28;20105;-63
2020/12/04 03:26:52;;;;;;;24.45;12.10;;;7.80;55.50;;;;;;4945310;28;20045;-63
2020/12/04 03:29:18;;;;;;;20.65;11.85;;;7.80;55.50;;;;;;4937858;28;20055;-63
2020/12/04 03:31:44;;;;;;;27.05;12.98;;;7.80;55.50;;;;;;4941328;28;20034;-63
2020/12/04 03:34:09;;;;;;;27.63;13.30;;;7.80;55.50;;;;;;4957823;28;20500;-63
2020/12/04 03:36:35;;;;;;;24.65;11.77;;;7.80;55.50;;;;;;4943930;28;20033;-63
2020/12/04 03:39:00;;;;;;;25.77;12.38;;;7.90;55.50;;;;;;4934770;28;20039;-63
2020/12/04 03:41:26;;;;;;;29.75;13.23;;;7.90;55.50;;;;;;4942640;28;20137;-63
2020/12/04 03:43:52;;;;;;;24.23;12.77;;;7.90;55.30;;;;;;4941690;28;20500;-64
2020/12/04 03:46:17;;;;;;;22.60;12.07;;;7.90;55.40;;;;;;4940577;28;20051;-63
2020/12/04 03:48:43;;;;;;;26.63;13.38;;;8.00;55.40;;;;;;4935555;28;20039;-63
2020/12/04 03:51:09;;;;;;;27.30;13.27;;;8.00;55.30;;;;;;4948625;28;20058;-63
2020/12/04 03:53:35;;;;;;;24.85;12.18;;;8.00;55.20;;;;;;4945161;28;20039;-63
2020/12/04 03:56:01;;;;;;;26.20;12.82;;;8.00;55.20;;;;;;4945048;28;20051;-63
2020/12/04 03:58:27;;;;;;;27.30;13.57;;;8.00;55.20;;;;;;4942723;28;20507;-63
2020/12/04 04:00:53;;;;;;;27.95;12.60;;;8.00;55.20;;;;;;4938735;28;20058;-63
2020/12/04 04:03:19;;;;;;;28.65;13.82;;;8.00;55.20;;;;;;4941937;28;20042;-63
2020/12/04 04:05:45;;;;;;;27.75;13.13;;;8.00;55.30;;;;;;4939478;28;20050;-63
2020/12/04 04:08:10;;;;;;;26.02;12.63;;;8.00;55.30;;;;;;4941158;28;20071;-63
2020/12/04 04:10:36;;;;;;;27.75;13.65;;;8.00;55.30;;;;;;4950541;28;20047;-63
2020/12/04 04:13:01;;;;;;;27.48;13.38;;;8.10;55.30;;;;;;4946989;28;20548;-68
2020/12/04 04:15:27;;;;;;;27.10;13.73;;;8.10;55.20;;;;;;4949779;28;20447;-66
2020/12/04 04:17:53;;;;;;;29.58;13.18;;;8.10;55.20;;;;;;4945537;28;20436;-64
2020/12/04 04:20:18;;;;;;;29.65;14.10;;;8.10;55.30;;;;;;4949394;28;20074;-63
2020/12/04 04:22:46;;;;;;;26.27;13.27;;;8.10;55.30;;;;;;4950278;28;20039;-63
2020/12/04 04:25:15;;;;;;;26.02;13.40;;;8.10;55.30;;;;;;4953624;28;20039;-63
2020/12/04 04:27:41;;;;;;;26.77;12.88;;;8.10;55.40;;;;;;4942912;28;20138;-63
2020/12/04 04:30:08;;;;;;;29.88;14.27;;;8.10;55.40;;;;;;4939706;28;20035;-63
2020/12/04 04:32:34;;;;;;;30.50;14.75;;;8.10;55.40;;;;;;4939910;28;20094;-63
2020/12/04 04:34:59;;;;;;;25.30;12.63;;;8.10;55.40;;;;;;4936234;28;20058;-63
2020/12/04 04:37:25;;;;;;;30.40;14.60;;;8.10;55.40;;;;;;4942407;28;20082;-63
2020/12/04 04:39:50;;;;;;;27.88;13.82;;;8.10;55.40;;;;;;4939769;28;20145;-63
2020/12/04 04:42:17;;;;;;;27.33;13.63;;;8.10;55.40;;;;;;4946927;28;20039;-63
2020/12/04 04:44:44;;;;;;;30.75;14.55;;;8.10;55.50;;;;;;4947485;28;20508;-63
2020/12/04 04:47:17;;;;;;;29.02;14.60;;;8.10;55.50;;;;;;4943071;28;20236;-63
2020/12/04 04:49:52;;;;;;;25.63;13.88;;;8.10;55.60;;;;;;4941049;28;20066;-63
2020/12/04 04:52:18;;;;;;;30.88;14.73;;;8.10;55.60;;;;;;4943721;28;20186;-63
2020/12/04 04:54:48;;;;;;;24.90;11.63;;;8.10;55.60;;;;;;4946974;28;20059;-63
2020/12/04 04:57:19;;;;;;;29.35;13.82;;;8.10;55.70;;;;;;4946644;28;20606;-63
2020/12/04 04:59:44;;;;;;;32.58;14.98;;;8.10;55.80;;;;;;4942988;28;20042;-63
2020/12/04 05:02:11;;;;;;;31.20;15.10;;;8.10;55.80;;;;;;4937764;28;20047;-63
2020/12/04 05:05:06;;;;;;;30.17;14.15;;;8.10;55.90;;;;;;4940987;28;20062;-67
2020/12/04 05:07:34;;;;;;;32.97;15.32;;;8.10;56.00;;;;;;4927160;28;20379;-63
2020/12/04 05:10:13;;;;;;;31.67;14.68;;;8.10;56.00;;;;;;4945726;28;20043;-63
2020/12/04 05:12:40;;;;;;;29.08;13.35;;;8.00;56.00;;;;;;4941730;28;20043;-63
2020/12/04 05:15:25;;;;;;;28.33;15.02;;;8.00;56.00;;;;;;4941315;28;20035;-63
2020/12/04 05:18:13;;;;;;;26.83;14.27;;;8.00;56.20;;;;;;4931973;28;20044;-63
2020/12/04 05:20:50;;;;;;;29.38;14.73;;;8.00;56.20;;;;;;4935487;28;20102;-63
2020/12/04 05:23:16;;;;;;;32.25;15.13;;;8.00;56.30;;;;;;4939767;28;20043;-63
2020/12/04 05:25:44;;;;;;;28.40;14.63;;;8.00;56.30;;;;;;4941182;28;20050;-63
2020/12/04 05:28:18;;;;;;;31.65;15.13;;;8.00;56.40;;;;;;4940122;28;20134;-63
2020/12/04 05:30:46;;;;;;;28.02;14.52;;;8.00;56.50;;;;;;4941331;28;20122;-63
2020/12/04 05:33:13;;;;;;;27.75;13.82;;;8.00;56.50;;;;;;4941001;28;20251;-63
2020/12/04 05:35:40;;;;;;;28.05;14.65;;;8.00;56.50;;;;;;4941060;28;20416;-63
2020/12/04 05:38:16;;;;;;;29.30;15.32;;;8.00;56.60;;;;;;4943292;28;20094;-63
2020/12/04 05:40:50;;;;;;;32.60;15.98;;;8.00;56.70;;;;;;4949177;28;20444;-63
2020/12/04 05:43:28;;;;;;;30.20;14.98;;;7.90;56.80;;;;;;4945645;28;20039;-63
2020/12/04 05:46:19;;;;;;;28.95;13.82;;;7.90;56.80;;;;;;4934428;28;20140;-63
2020/12/04 05:49:08;;;;;;;29.33;14.52;;;7.90;56.80;;;;;;4941527;28;20039;-63
2020/12/04 05:51:37;;;;;;;30.55;14.63;;;7.80;56.90;;;;;;4946013;28;20085;-63
2020/12/04 05:54:05;;;;;;;27.77;13.18;;;7.80;57.00;;;;;;4936862;28;20473;-63
2020/12/04 05:56:32;;;;;;;28.02;14.15;;;7.80;57.20;;;;;;4938258;28;20395;-63
2020/12/04 05:59:03;;;;;;;30.92;14.73;;;7.80;57.30;;;;;;4931278;28;20129;-63
2020/12/04 06:01:29;;;;;;;30.75;14.88;;;7.80;57.30;;;;;;4933091;28;20070;-63
2020/12/04 06:03:56;;;;;;;28.40;14.68;;;7.80;57.30;;;;;;4929338;28;20146;-63
2020/12/04 06:06:26;;;;;;;29.00;15.45;;;7.80;57.40;;;;;;4928841;28;20165;-63
2020/12/04 06:08:58;;;;;;;31.80;15.75;;;7.80;57.50;;;;;;4935913;28;20028;-63
2020/12/04 06:11:29;;;;;;;32.22;15.95;;;7.80;57.50;;;;;;4948610;28;20131;-63
2020/12/04 06:13:57;;;;;;;31.33;15.95;;;7.80;57.50;;;;;;4948976;28;20416;-63
2020/12/04 06:16:24;;;;;;;32.15;14.73;;;7.80;57.50;;;;;;4941479;28;20081;-63
2020/12/04 06:18:49;;;;;;;31.13;15.13;;;7.70;57.50;;;;;;4927613;28;20049;-63
2020/12/04 06:21:15;;;;;;;34.88;15.43;;;7.80;57.60;;;;;;4945395;28;20047;-63
2020/12/04 06:24:08;;;;;;;37.42;17.10;;;7.70;57.60;;;;;;4942494;28;20389;-63
2020/12/04 06:26:52;;;;;;;32.40;15.88;;;7.70;57.70;;;;;;4939113;28;20070;-63
2020/12/04 06:29:17;;;;;;;37.15;17.83;;;7.70;57.80;;;;;;4943258;28;20027;-63
2020/12/04 06:31:43;;;;;;;30.00;15.38;;;7.70;57.80;;;;;;4943220;28;20034;-63
2020/12/04 06:34:17;;;;;;;33.35;16.33;;;7.70;57.80;;;;;;4948742;28;20038;-63
2020/12/04 06:36:44;;;;;;;35.13;16.17;;;7.70;58.00;;;;;;4942025;28;20046;-63
2020/12/04 06:39:26;;;;;;;32.95;16.38;;;7.70;58.00;;;;;;4945026;28;20582;-63
2020/12/04 06:41:51;;;;;;;33.67;16.17;;;7.70;58.70;;;;;;4936369;28;20043;-63
2020/12/04 06:44:21;;;;;;;33.83;16.63;;;7.70;58.20;;;;;;4943804;28;20585;-63
2020/12/04 06:46:51;;;;;;;34.53;16.88;;;7.70;58.30;;;;;;4943765;28;20165;-63
2020/12/04 06:49:38;;;;;;;34.63;17.40;;;7.70;58.40;;;;;;4950478;28;20084;-63
2020/12/04 06:52:08;;;;;;;29.38;15.85;;;7.70;58.40;;;;;;4939739;28;20042;-63
2020/12/04 06:54:36;;;;;;;33.88;16.60;;;7.70;58.40;;;;;;4943517;28;20070;-63
2020/12/04 06:57:01;;;;;;;37.60;16.80;;;7.70;58.50;;;;;;4954030;28;20046;-63
2020/12/04 06:59:28;;;;;;;36.85;16.60;;;7.70;58.50;;;;;;4940845;28;20039;-63
2020/12/04 07:02:09;;;;;;;33.35;16.67;;;7.80;58.60;;;;;;4931755;28;20078;-63
2020/12/04 07:04:37;;;;;;;35.50;16.17;;;7.80;58.60;;;;;;4940196;28;20046;-63
2020/12/04 07:07:10;;;;;;;35.65;17.52;;;7.80;58.70;;;;;;4941735;28;20118;-63
2020/12/04 07:09:36;;;;;;;36.30;16.80;;;7.70;58.70;;;;;;4938512;28;20035;-63
2020/12/04 07:12:03;;;;;;;37.53;16.90;;;7.80;59.40;;;;;;4951046;23;20137;-65
2020/12/04 07:14:30;;;;;;;36.67;17.08;;;7.80;58.90;;;;;;4932347;28;20046;-64
2020/12/04 07:16:55;;;;;;;34.78;15.65;;;7.80;59.00;;;;;;4934983;28;20991;-64
2020/12/04 07:19:22;;;;;;;41.80;17.58;;;7.80;58.90;;;;;;4939558;28;20059;-64
2020/12/04 07:21:48;;;;;;;37.67;16.58;;;7.80;59.00;;;;;;4940310;28;20042;-64
2020/12/04 07:24:14;;;;;;;37.63;16.63;;;7.90;59.10;;;;;;4939110;28;20047;-65
2020/12/04 07:26:49;;;;;;;31.92;16.08;;;7.90;59.10;;;;;;4939240;28;20082;-66
2020/12/04 07:29:14;;;;;;;35.95;16.23;;;7.90;59.10;;;;;;4932598;28;20035;-65
2020/12/04 07:31:45;;;;;;;34.00;16.42;;;7.90;59.10;;;;;;4946107;28;20101;-65
2020/12/04 07:34:11;;;;;;;41.33;17.25;;;7.90;59.20;;;;;;4940541;28;20204;-65
2020/12/04 07:36:47;;;;;;;33.35;16.58;;;7.90;59.20;;;;;;4941643;28;20542;-65
2020/12/04 07:39:22;;;;;;;35.28;16.67;;;7.90;59.30;;;;;;4939929;28;20042;-65
2020/12/04 07:41:48;;;;;;;34.80;16.13;;;8.00;59.30;;;;;;4940009;28;20043;-65
2020/12/04 07:44:14;;;;;;;34.15;16.02;;;8.00;59.40;;;;;;4936327;28;20467;-65
2020/12/04 07:46:40;;;;;;;31.33;15.90;;;8.00;59.40;;;;;;4932345;28;20042;-65
2020/12/04 07:49:11;;;;;;;33.72;16.52;;;8.00;59.50;;;;;;4937075;28;20043;-65
2020/12/04 07:51:39;;;;;;;33.22;16.88;;;8.00;59.50;;;;;;4935462;28;20063;-65
2020/12/04 07:54:17;;;;;;;35.42;16.55;;;8.00;59.50;;;;;;4946421;28;20039;-65
2020/12/04 07:56:50;;;;;;;32.45;16.23;;;8.00;59.50;;;;;;4936943;28;20036;-65
2020/12/04 07:59:22;;;;;;;37.75;17.52;;;8.10;59.60;;;;;;4931837;28;20031;-65
2020/12/04 08:01:48;;;;;;;33.20;16.05;;;8.10;59.60;;;;;;4932669;28;20040;-65
2020/12/04 08:04:17;;;;;;;33.45;16.95;;;8.10;59.70;;;;;;4936183;28;20148;-65
2020/12/04 08:06:43;;;;;;;34.67;16.90;;;8.10;59.80;;;;;;4937477;28;20069;-65
2020/12/04 08:09:12;;;;;;;36.47;17.35;;;8.10;59.70;;;;;;4939609;28;20432;-65
2020/12/04 08:11:46;;;;;;;40.40;17.05;;;8.10;59.80;;;;;;4935696;28;20063;-65
2020/12/04 08:14:14;;;;;;;35.83;15.95;;;8.10;59.90;;;;;;4928121;28;20504;-65
2020/12/04 08:16:39;;;;;;;37.53;17.67;;;8.10;59.90;;;;;;4930522;28;20054;-69
2020/12/04 08:19:14;;;;;;;33.40;16.85;;;8.10;60.00;;;;;;4932898;28;20138;-65
2020/12/04 08:22:00;;;;;;;37.35;16.60;;;8.20;60.10;;;;;;4930238;28;20031;-65
2020/12/04 08:24:32;;;;;;;34.47;17.17;;;8.20;60.10;;;;;;4938779;28;20035;-65
2020/12/04 08:27:02;;;;;;;36.63;15.95;;;8.20;60.10;;;;;;4927916;28;20038;-65
2020/12/04 08:29:28;;;;;;;32.67;16.45;;;8.20;60.20;;;;;;4923857;28;20047;-65
2020/12/04 08:32:12;;;;;;;32.38;15.45;;;8.30;60.20;;;;;;4917806;28;21696;-64
2020/12/04 08:34:38;;;;;;;30.35;15.57;;;8.30;60.30;;;;;;4926131;28;20090;-64
2020/12/04 08:37:09;;;;;;;34.00;17.00;;;8.30;60.30;;;;;;4932054;28;20915;-63
2020/12/04 08:40:04;;;;;;;32.75;16.60;;;8.40;60.40;;;;;;4937368;28;20043;-64
2020/12/04 08:42:34;;;;;;;38.22;16.40;;;8.40;60.40;;;;;;4918791;28;20114;-63
2020/12/04 08:45:02;;;;;;;30.75;15.52;;;8.40;60.20;;;;;;4931686;28;20142;-63
2020/12/04 08:47:30;;;;;;;36.17;15.90;;;8.40;60.20;;;;;;4925182;28;22292;-64
2020/12/04 08:49:56;;;;;;;30.58;15.80;;;8.50;60.30;;;;;;4928087;28;20051;-64
2020/12/04 08:52:38;;;;;;;33.60;17.08;;;8.50;60.20;;;;;;4931986;28;20046;-64
2020/12/04 08:55:06;;;;;;;33.08;15.32;;;8.50;60.20;;;;;;4932156;28;20140;-64
2020/12/04 08:57:31;;;;;;;35.30;16.08;;;8.50;60.10;;;;;;4934322;28;20042;-63
2020/12/04 08:59:57;;;;;;;35.60;16.33;;;8.60;60.20;;;;;;4941235;28;20688;-64
2020/12/04 09:02:22;;;;;;;33.28;15.77;;;8.60;60.20;;;;;;4937524;28;20043;-64
2020/12/04 09:04:48;;;;;;;29.30;14.50;;;8.60;60.20;;;;;;4945046;28;20046;-64
2020/12/04 09:07:13;;;;;;;34.40;15.98;;;8.70;60.20;;;;;;4939621;28;20043;-64
2020/12/04 09:09:39;;;;;;;33.78;16.00;;;8.60;60.10;;;;;;4939271;28;20501;-64
2020/12/04 09:12:04;;;;;;;30.67;14.52;;;8.70;60.20;;;;;;4944679;28;20170;-64
2020/12/04 09:14:30;;;;;;;29.88;15.13;;;8.70;60.10;;;;;;4946870;28;20047;-64
2020/12/04 09:16:56;;;;;;;30.48;15.35;;;8.70;60.10;;;;;;4937070;28;20082;-64
2020/12/04 09:19:21;;;;;;;30.42;13.73;;;8.70;60.10;;;;;;4940168;28;20047;-64
2020/12/04 09:21:47;;;;;;;27.70;14.80;;;8.80;60.10;;;;;;4937857;28;20904;-64
2020/12/04 09:24:12;;;;;;;27.73;14.07;;;8.80;60.10;;;;;;4944072;28;20046;-64
2020/12/04 09:26:38;;;;;;;29.35;13.63;;;8.90;60.20;;;;;;4943757;28;20121;-64
2020/12/04 09:29:03;;;;;;;26.92;13.48;;;8.90;60.10;;;;;;4936711;28;20373;-64
2020/12/04 09:31:33;;;;;;;27.77;14.25;;;8.90;60.10;;;;;;4937787;28;20043;-64
2020/12/04 09:33:58;;;;;;;28.60;14.45;;;9.00;60.10;;;;;;4941917;28;20070;-64
2020/12/04 09:36:26;;;;;;;33.65;16.42;;;9.10;60.20;;;;;;4945928;28;20082;-64
2020/12/04 09:38:52;;;;;;;24.52;13.73;;;9.10;60.00;;;;;;4944717;28;20035;-64
2020/12/04 09:41:18;;;;;;;27.50;14.65;;;9.10;60.00;;;;;;4939398;28;20034;-65
2020/12/04 09:43:43;;;;;;;29.27;14.98;;;9.20;60.00;;;;;;4939129;28;20138;-64
2020/12/04 09:46:09;;;;;;;27.73;14.13;;;9.20;59.90;;;;;;4936753;28;20686;-64
2020/12/04 09:48:35;;;;;;;27.05;13.60;;;9.20;59.90;;;;;;4955909;28;20093;-64
2020/12/04 09:51:00;;;;;;;25.67;12.85;;;9.30;59.90;;;;;;4941239;28;20145;-64
2020/12/04 09:53:28;;;;;;;23.38;12.57;;;9.30;59.90;;;;;;4940859;28;20039;-64
2020/12/04 09:55:54;;;;;;;23.02;12.85;;;9.40;59.90;;;;;;4939520;28;20393;-64
2020/12/04 09:58:19;;;;;;;23.73;12.07;;;9.40;60.00;;;;;;4938928;28;20031;-64
2020/12/04 10:00:45;;;;;;;22.10;11.65;;;9.40;59.90;;;;;;4941770;28;20058;-64
2020/12/04 10:03:10;;;;;;;20.92;11.52;;;9.50;59.90;;;;;;4939014;28;20039;-64
2020/12/04 10:05:36;;;;;;;20.85;11.10;;;9.50;59.90;;;;;;4959121;28;20106;-64
2020/12/04 10:08:02;;;;;;;22.92;12.55;;;9.60;59.80;;;;;;4942771;28;20608;-64
2020/12/04 10:10:27;;;;;;;24.00;11.93;;;9.60;59.80;;;;;;4938807;28;20043;-64
2020/12/04 10:12:53;;;;;;;20.92;11.27;;;9.70;59.70;;;;;;4940845;28;20055;-64
2020/12/04 10:15:18;;;;;;;22.15;11.63;;;9.70;59.60;;;;;;4935503;28;20043;-64
2020/12/04 10:17:44;;;;;;;24.40;12.73;;;9.80;59.70;;;;;;4931514;28;20460;-64
2020/12/04 10:20:09;;;;;;;23.08;11.80;;;9.80;59.60;;;;;;4939266;28;20039;-64
2020/12/04 10:22:35;;;;;;;23.60;11.90;;;9.90;59.60;;;;;;4939919;28;20881;-64
2020/12/04 10:25:01;;;;;;;23.20;11.10;;;9.90;59.50;;;;;;4943633;28;20050;-64
2020/12/04 10:27:26;;;;;;;23.80;11.77;;;10.00;59.60;;;;;;4942911;28;24151;-64
2020/12/04 10:29:52;;;;;;;24.17;12.23;;;10.00;59.50;;;;;;4938613;28;20047;-64
2020/12/04 10:32:19;;;;;;;22.48;11.88;;;10.10;59.50;;;;;;4938082;28;20039;-64
2020/12/04 10:34:44;;;;;;;21.20;11.50;;;10.20;59.50;;;;;;4939089;28;20031;-64
2020/12/04 10:37:10;;;;;;;23.75;11.43;;;10.40;59.50;;;;;;4943179;28;20054;-64
2020/12/04 10:39:35;;;;;;;21.67;11.02;;;10.40;59.30;;;;;;4937901;28;20532;-64
2020/12/04 10:42:02;;;;;;;18.55;9.82;;;10.50;59.10;;;;;;4940049;28;20082;-64
2020/12/04 10:44:28;;;;;;;20.30;10.77;;;10.60;59.00;;;;;;4935622;28;20128;-64
2020/12/04 10:46:53;;;;;;;17.38;10.57;;;10.60;58.90;;;;;;4934815;28;20089;-64
2020/12/04 10:49:19;;;;;;;22.63;9.93;;;10.70;58.90;;;;;;4938342;28;20488;-64
2020/12/04 10:51:53;;;;;;;20.17;10.48;;;10.90;59.10;;;;;;4933809;28;20505;-64
2020/12/04 10:54:18;;;;;;;19.15;9.88;;;11.00;58.80;;;;;;4940995;28;20032;-64
2020/12/04 10:56:44;;;;;;;15.02;8.63;;;11.20;58.70;;;;;;4945084;28;20451;-64
2020/12/04 10:59:09;;;;;;;14.60;7.82;;;11.40;58.40;;;;;;4938494;28;20043;-64
2020/12/04 11:01:40;;;;;;;17.30;8.45;;;11.60;58.50;;;;;;4944067;28;20741;-64
2020/12/04 11:06:50;;;;;;;16.50;9.07;;;12.00;57.80;;;;;;4944074;28;20519;-65
2020/12/04 11:09:15;;;;;;;16.25;9.40;;;12.20;57.40;;;;;;4937762;28;20035;-65
2020/12/04 11:11:41;;;;;;;15.80;8.23;;;12.30;57.00;;;;;;4937855;28;20185;-66
2020/12/04 11:14:07;;;;;;;15.18;8.38;;;12.30;56.40;;;;;;4936158;28;20051;-65
2020/12/04 11:16:32;;;;;;;13.70;8.05;;;12.30;56.30;;;;;;4942136;28;20054;-64
2020/12/04 11:18:58;;;;;;;14.45;8.35;;;12.20;56.20;;;;;;4937263;28;20058;-64
2020/12/04 11:21:28;;;;;;;14.35;9.13;;;12.10;56.20;;;;;;4940742;28;20048;-64
2020/12/04 11:23:54;;;;;;;12.35;7.75;;;12.00;56.00;;;;;;4943594;28;20527;-64
2020/12/04 11:26:20;;;;;;;12.32;7.80;;;11.90;56.10;;;;;;4937990;28;20047;-64
2020/12/04 11:28:45;;;;;;;14.15;8.18;;;11.90;56.30;;;;;;4941715;28;20480;-64
2020/12/04 11:31:11;;;;;;;12.48;7.85;;;11.80;56.40;;;;;;4944442;28;20038;-64
2020/12/04 11:33:37;;;;;;;14.20;8.07;;;11.80;56.50;;;;;;4942609;28;20043;-64
2020/12/04 11:36:02;;;;;;;12.70;7.65;;;11.80;56.40;;;;;;4942913;28;20499;-65
2020/12/04 11:38:30;;;;;;;17.55;7.93;;;11.80;56.40;;;;;;4944330;28;20046;-65
2020/12/04 11:40:56;;;;;;;14.48;7.07;;;11.80;56.50;;;;;;4951046;28;20082;-64
2020/12/04 11:43:22;;;;;;;11.70;6.68;;;11.80;56.70;;;;;;4939000;28;20051;-64
2020/12/04 11:45:47;;;;;;;12.18;6.65;;;11.90;56.70;;;;;;4939757;28;20384;-65
2020/12/04 11:48:13;;;;;;;12.40;7.18;;;11.90;56.70;;;;;;4932322;28;20101;-64
2020/12/04 11:50:38;;;;;;;12.43;6.97;;;12.00;56.60;;;;;;4940825;28;20047;-65
2020/12/04 11:53:04;;;;;;;9.52;6.53;;;12.10;56.60;;;;;;4944498;28;20043;-65
2020/12/04 11:55:30;;;;;;;10.95;6.68;;;12.20;56.50;;;;;;4944069;28;20043;-65
2020/12/04 11:57:55;;;;;;;9.35;6.10;;;12.20;56.40;;;;;;4938879;28;20035;-64
2020/12/04 12:00:21;;;;;;;11.25;6.40;;;12.30;56.20;;;;;;4945096;28;20035;-65
2020/12/04 12:02:47;;;;;;;10.13;6.07;;;12.50;56.70;;;;;;4953174;28;20043;-64
2020/12/04 12:05:13;;;;;;;10.00;6.00;;;12.90;56.10;;;;;;4934638;28;20049;-64
2020/12/04 12:07:39;;;;;;;9.32;5.50;;;13.20;56.50;;;;;;4937315;28;20039;-65
2020/12/04 12:10:04;;;;;;;10.25;5.88;;;13.60;55.20;;;;;;4943503;28;20043;-65
2020/12/04 12:12:30;;;;;;;9.27;5.63;;;13.90;54.40;;;;;;4939726;28;20051;-65
2020/12/04 12:14:56;;;;;;;11.30;5.55;;;14.10;54.00;;;;;;4938100;28;20050;-65
2020/12/04 12:17:22;;;;;;;8.05;5.28;;;14.30;53.70;;;;;;4940348;28;20055;-65
2020/12/04 12:19:48;;;;;;;6.75;4.88;;;;;;;;;;4935793;28;20467;-65
2020/12/04 12:22:16;;;;;;;7.10;5.00;;;14.60;52.50;;;;;;4938885;28;20535;-65
2020/12/04 12:24:43;;;;;;;7.88;5.30;;;14.50;52.00;;;;;;4944681;28;20403;-65
2020/12/04 12:27:09;;;;;;;9.25;5.43;;;14.40;51.70;;;;;;4943138;28;20030;-65
2020/12/04 12:29:36;;;;;;;7.65;5.20;;;14.30;51.60;;;;;;4940962;28;20492;-65
2020/12/04 12:32:02;;;;;;;9.55;5.45;;;14.10;52.10;;;;;;4952661;28;20035;-65
2020/12/04 12:37:13;;;;;;;5.75;4.55;;;13.80;52.30;;;;;;4934528;28;20095;-65
2020/12/04 12:39:39;;;;;;;8.48;5.38;;;13.60;52.70;;;;;;4936243;28;20043;-64
2020/12/04 12:42:09;;;;;;;7.25;4.95;;;13.60;52.90;;;;;;4949733;28;20036;-65
2020/12/04 12:44:36;;;;;;;9.52;5.15;;;13.50;53.00;;;;;;4942770;28;20504;-65
2020/12/04 12:47:04;;;;;;;8.73;5.43;;;13.40;53.20;;;;;;4942264;28;20138;-64